createdAt,value
2019-06-15T00:00:46.093Z,20.20
2019-06-15T00:03:19.839Z,20.20
2019-06-15T00:05:53.743Z,20.30
2019-06-15T00:08:27.434Z,20.30
2019-06-15T00:11:01.757Z,20.20
2019-06-15T00:13:35.363Z,20.20
2019-06-15T00:16:09.100Z,20.20
2019-06-15T00:18:43.552Z,20.00
2019-06-15T00:21:17.211Z,20.00
2019-06-15T00:23:50.798Z,19.90
2019-06-15T00:26:25.321Z,19.80
2019-06-15T00:28:58.898Z,19.80
2019-06-15T00:31:32.544Z,19.80
2019-06-15T00:34:06.221Z,19.80
2019-06-15T00:36:39.943Z,19.80
2019-06-15T00:39:13.643Z,19.80
2019-06-15T00:41:47.333Z,19.70
2019-06-15T00:44:21.231Z,19.80
2019-06-15T00:46:54.730Z,19.70
2019-06-15T00:49:28.452Z,19.70
2019-06-15T00:52:03.002Z,19.60
2019-06-15T00:54:49.661Z,19.60
2019-06-15T00:57:10.933Z,19.50
2019-06-15T00:59:44.594Z,19.50
2019-06-15T01:02:18.251Z,19.40
2019-06-15T01:04:51.796Z,19.40
2019-06-15T01:07:26.304Z,19.40
2019-06-15T01:09:59.882Z,19.40
2019-06-15T01:12:33.485Z,19.40
2019-06-15T01:15:07.232Z,19.40
2019-06-15T01:17:41.016Z,19.30
2019-06-15T01:20:14.587Z,19.30
2019-06-15T01:22:48.906Z,19.30
2019-06-15T01:25:22.659Z,19.20
2019-06-15T01:27:56.229Z,19.20
2019-06-15T01:30:29.767Z,19.20
2019-06-15T01:33:03.583Z,19.10
2019-06-15T01:35:37.254Z,19.10
2019-06-15T01:38:11.071Z,19.10
2019-06-15T01:40:46.490Z,19.00
2019-06-15T01:43:19.999Z,18.90
2019-06-15T01:45:53.617Z,18.90
2019-06-15T01:48:27.298Z,18.80
2019-06-15T01:51:00.894Z,18.80
2019-06-15T01:53:34.656Z,18.70
2019-06-15T01:56:08.265Z,18.60
2019-06-15T01:58:42.739Z,18.50
2019-06-15T02:01:16.484Z,18.50
2019-06-15T02:03:50.743Z,18.50
2019-06-15T02:06:26.144Z,18.40
2019-06-15T02:08:59.706Z,18.40
2019-06-15T02:11:33.261Z,18.40
2019-06-15T02:14:06.820Z,18.30
2019-06-15T02:16:40.441Z,18.30
2019-06-15T02:19:14.254Z,18.30
2019-06-15T02:21:47.996Z,18.30
2019-06-15T02:24:21.536Z,18.40
2019-06-15T02:26:55.131Z,18.30
2019-06-15T02:29:28.727Z,18.30
2019-06-15T02:32:02.455Z,18.40
2019-06-15T02:34:36.200Z,18.30
2019-06-15T02:37:09.998Z,18.30
2019-06-15T02:39:43.563Z,18.20
2019-06-15T02:42:18.188Z,18.20
2019-06-15T02:44:51.816Z,18.20
2019-06-15T02:47:25.519Z,18.30
2019-06-15T02:49:59.087Z,18.30
2019-06-15T02:52:33.395Z,18.10
2019-06-15T02:55:06.924Z,18.10
2019-06-15T02:57:40.507Z,18.00
2019-06-15T03:00:14.118Z,17.90
2019-06-15T03:02:47.716Z,17.80
2019-06-15T03:05:21.277Z,17.70
2019-06-15T03:07:54.855Z,17.70
2019-06-15T03:10:28.503Z,17.70
2019-06-15T03:13:02.246Z,17.70
2019-06-15T03:15:36.578Z,17.80
2019-06-15T03:18:10.296Z,17.70
2019-06-15T03:20:43.934Z,17.80
2019-06-15T03:23:17.727Z,17.80
2019-06-15T03:26:04.759Z,17.80
2019-06-15T03:28:25.857Z,17.90
2019-06-15T03:31:00.237Z,18.00
2019-06-15T03:33:34.010Z,18.00
2019-06-15T03:36:07.721Z,18.10
2019-06-15T03:38:41.264Z,18.00
2019-06-15T03:41:14.964Z,18.00
2019-06-15T03:43:48.864Z,18.00
2019-06-15T03:46:23.507Z,18.00
2019-06-15T03:48:57.227Z,18.00
2019-06-15T03:51:31.607Z,18.00
2019-06-15T03:54:05.954Z,18.00
2019-06-15T03:56:39.511Z,17.90
2019-06-15T03:59:13.142Z,18.00
2019-06-15T04:01:50.649Z,18.20
2019-06-15T04:04:24.428Z,18.50
2019-06-15T04:06:58.175Z,18.80
2019-06-15T04:09:31.802Z,19.00
2019-06-15T04:12:05.533Z,19.10
2019-06-15T04:14:39.344Z,19.30
2019-06-15T04:17:13.275Z,19.30
2019-06-15T04:19:46.875Z,19.40
2019-06-15T04:22:20.668Z,19.50
2019-06-15T04:24:55.207Z,19.60
2019-06-15T04:27:28.911Z,19.50
2019-06-15T04:30:04.047Z,19.60
2019-06-15T04:32:37.732Z,19.60
2019-06-15T04:35:12.174Z,19.70
2019-06-15T04:37:45.713Z,19.70
2019-06-15T04:40:19.400Z,19.80
2019-06-15T04:42:53.142Z,19.80
2019-06-15T04:45:26.833Z,19.70
2019-06-15T04:48:00.368Z,19.80
2019-06-15T04:50:33.990Z,19.80
2019-06-15T04:53:08.394Z,19.90
2019-06-15T04:55:43.074Z,20.00
2019-06-15T04:58:16.780Z,20.00
2019-06-15T05:00:50.483Z,20.00
2019-06-15T05:03:24.108Z,19.90
2019-06-15T05:05:58.706Z,19.70
2019-06-15T05:08:32.370Z,19.70
2019-06-15T05:11:07.036Z,20.10
2019-06-15T05:13:40.761Z,20.10
2019-06-15T05:16:14.367Z,20.50
2019-06-15T05:18:47.976Z,20.90
2019-06-15T05:21:21.722Z,20.60
2019-06-15T05:23:55.369Z,20.30
2019-06-15T05:26:28.986Z,20.20
2019-06-15T05:29:02.792Z,20.10
2019-06-15T05:31:37.361Z,19.90
2019-06-15T05:34:11.566Z,19.90
2019-06-15T05:36:45.173Z,19.80
2019-06-15T05:39:18.688Z,19.90
2019-06-15T05:41:53.206Z,20.20
2019-06-15T05:44:27.741Z,20.30
2019-06-15T05:47:01.285Z,20.30
2019-06-15T05:49:34.890Z,20.40
2019-06-15T05:52:08.910Z,20.30
2019-06-15T05:54:43.480Z,20.10
2019-06-15T05:57:21.750Z,20.10
2019-06-15T05:59:50.902Z,20.10
2019-06-15T06:02:24.962Z,20.30
2019-06-15T06:04:58.979Z,20.40
2019-06-15T06:07:32.824Z,20.40
2019-06-15T06:10:06.631Z,20.50
2019-06-15T06:12:40.249Z,20.60
2019-06-15T06:15:13.973Z,20.60
2019-06-15T06:17:47.553Z,20.70
2019-06-15T06:20:21.273Z,20.90
2019-06-15T06:22:54.963Z,21.00
2019-06-15T06:25:29.407Z,21.20
2019-06-15T06:28:03.762Z,21.40
2019-06-15T06:30:37.539Z,21.40
2019-06-15T06:33:11.138Z,21.50
2019-06-15T06:35:44.669Z,21.50
2019-06-15T06:38:18.299Z,21.50
2019-06-15T06:40:51.987Z,21.50
2019-06-15T06:43:25.533Z,21.70
2019-06-15T06:45:59.434Z,21.90
2019-06-15T06:48:34.072Z,22.10
2019-06-15T06:51:07.698Z,22.10
2019-06-15T06:53:41.448Z,22.20
2019-06-15T06:56:15.234Z,22.50
2019-06-15T06:58:48.874Z,22.80
2019-06-15T07:01:22.528Z,22.90
2019-06-15T07:03:56.357Z,22.90
2019-06-15T07:06:30.172Z,22.90
2019-06-15T07:09:03.838Z,22.80
2019-06-15T07:11:37.907Z,22.90
2019-06-15T07:14:11.531Z,23.00
2019-06-15T07:16:45.901Z,22.80
2019-06-15T07:19:19.749Z,22.70
2019-06-15T07:21:54.198Z,23.00
2019-06-15T07:24:27.743Z,23.00
2019-06-15T07:27:01.485Z,23.20
2019-06-15T07:29:36.110Z,23.20
2019-06-15T07:32:09.787Z,23.10
2019-06-15T07:34:43.416Z,23.30
2019-06-15T07:37:17.093Z,23.30
2019-06-15T07:39:50.825Z,23.40
2019-06-15T07:42:24.417Z,23.40
2019-06-15T07:44:58.125Z,23.60
2019-06-15T07:47:31.866Z,23.90
2019-06-15T07:50:05.484Z,24.20
2019-06-15T07:52:39.090Z,24.50
2019-06-15T07:55:12.852Z,24.60
2019-06-15T07:57:46.643Z,24.70
2019-06-15T08:00:22.086Z,24.70
2019-06-15T08:02:55.800Z,24.70
2019-06-15T08:05:29.502Z,24.60
2019-06-15T08:08:03.382Z,24.50
2019-06-15T08:10:36.963Z,24.80
2019-06-15T08:13:10.511Z,24.90
2019-06-15T08:15:44.128Z,24.80
2019-06-15T08:18:17.881Z,24.60
2019-06-15T08:20:51.507Z,24.60
2019-06-15T08:23:25.263Z,25.00
2019-06-15T08:25:59.080Z,25.90
2019-06-15T08:28:40.394Z,26.50
2019-06-15T08:31:06.512Z,27.30
2019-06-15T08:33:40.176Z,27.50
2019-06-15T08:36:13.889Z,27.10
2019-06-15T08:38:47.465Z,26.00
2019-06-15T08:41:21.041Z,25.30
2019-06-15T08:43:54.571Z,25.30
2019-06-15T08:46:28.163Z,25.00
2019-06-15T08:49:02.778Z,25.00
2019-06-15T08:51:36.387Z,25.00
2019-06-15T08:54:10.028Z,25.30
2019-06-15T08:56:43.528Z,25.40
2019-06-15T08:59:17.098Z,25.40
2019-06-15T09:01:50.668Z,25.40
2019-06-15T09:04:24.399Z,25.30
2019-06-15T09:06:58.099Z,25.50
2019-06-15T09:09:31.819Z,25.80
2019-06-15T09:12:05.512Z,25.70
2019-06-15T09:14:39.183Z,26.10
2019-06-15T09:17:13.724Z,27.60
2019-06-15T09:19:47.476Z,27.50
2019-06-15T09:22:21.245Z,27.90
2019-06-15T09:24:54.855Z,28.60
2019-06-15T09:27:28.505Z,28.90
2019-06-15T09:30:02.378Z,29.00
2019-06-15T09:32:35.974Z,29.00
2019-06-15T09:35:09.543Z,29.30
2019-06-15T09:37:43.313Z,29.40
2019-06-15T09:40:17.040Z,29.70
2019-06-15T09:42:50.697Z,30.30
2019-06-15T09:45:24.420Z,30.20
2019-06-15T09:47:58.176Z,30.40
2019-06-15T09:50:31.937Z,29.70
2019-06-15T09:53:05.793Z,28.80
2019-06-15T09:55:39.478Z,28.20
2019-06-15T09:58:14.000Z,26.90
2019-06-15T10:00:47.635Z,26.80
2019-06-15T10:03:21.204Z,26.10
2019-06-15T10:05:54.879Z,26.30
2019-06-15T10:08:28.629Z,26.30
2019-06-15T10:11:02.352Z,26.40
2019-06-15T10:13:36.095Z,25.90
2019-06-15T10:16:09.962Z,25.80
2019-06-15T10:18:43.745Z,26.30
2019-06-15T10:21:17.283Z,27.20
2019-06-15T10:23:51.884Z,27.90
2019-06-15T10:26:25.469Z,27.80
2019-06-15T10:28:59.494Z,27.80
2019-06-15T10:31:34.250Z,27.50
2019-06-15T10:34:08.649Z,26.90
2019-06-15T10:36:42.393Z,26.90
2019-06-15T10:39:16.047Z,26.70
2019-06-15T10:41:49.675Z,27.30
2019-06-15T10:44:23.507Z,28.00
2019-06-15T10:46:57.276Z,28.30
2019-06-15T10:49:30.910Z,28.10
2019-06-15T10:52:04.620Z,28.00
2019-06-15T10:54:39.060Z,27.60
2019-06-15T10:57:13.381Z,27.50
2019-06-15T10:59:56.767Z,27.50
2019-06-15T11:02:20.555Z,27.00
2019-06-15T11:04:54.293Z,26.60
2019-06-15T11:07:28.031Z,26.50
2019-06-15T11:10:02.421Z,26.40
2019-06-15T11:12:45.879Z,26.40
2019-06-15T11:15:11.043Z,26.90
2019-06-15T11:17:45.320Z,27.40
2019-06-15T11:20:19.005Z,27.60
2019-06-15T11:22:52.690Z,27.70
2019-06-15T11:25:26.432Z,27.80
2019-06-15T11:28:00.915Z,27.70
2019-06-15T11:30:35.406Z,27.70
2019-06-15T11:33:09.141Z,27.90
2019-06-15T11:35:49.734Z,27.90
2019-06-15T11:38:25.159Z,27.30
2019-06-15T11:41:04.618Z,26.80
2019-06-15T11:43:38.553Z,26.60
2019-06-15T11:46:12.290Z,26.50
2019-06-15T11:48:47.831Z,26.80
2019-06-15T11:51:21.536Z,26.90
2019-06-15T11:53:55.998Z,26.80
2019-06-15T11:56:29.638Z,26.40
2019-06-15T11:59:03.983Z,26.30
2019-06-15T12:01:38.005Z,26.30
2019-06-15T12:04:12.209Z,26.30
2019-06-15T12:06:50.093Z,26.10
2019-06-15T12:09:26.877Z,26.40
2019-06-15T12:12:00.793Z,26.30
2019-06-15T12:14:36.488Z,26.40
2019-06-15T12:17:10.262Z,26.50
2019-06-15T12:19:44.116Z,26.70
2019-06-15T12:22:18.014Z,26.50
2019-06-15T12:24:51.602Z,26.50
2019-06-15T12:27:27.292Z,26.50
2019-06-15T12:30:01.008Z,26.40
2019-06-15T12:32:34.742Z,26.40
2019-06-15T12:35:09.261Z,26.60
2019-06-15T12:37:44.548Z,26.70
2019-06-15T12:40:20.261Z,26.60
2019-06-15T12:42:53.896Z,26.80
2019-06-15T12:45:27.461Z,26.50
2019-06-15T12:48:01.748Z,26.70
2019-06-15T12:50:36.899Z,26.60
2019-06-15T12:53:12.388Z,26.70
2019-06-15T12:55:47.015Z,26.50
2019-06-15T12:58:21.732Z,26.50
2019-06-15T13:01:02.920Z,26.50
2019-06-15T13:03:29.430Z,26.50
2019-06-15T13:06:04.048Z,26.70
2019-06-15T13:08:37.881Z,26.90
2019-06-15T13:11:11.736Z,27.00
2019-06-15T13:13:46.318Z,27.20
2019-06-15T13:16:20.024Z,27.10
2019-06-15T13:18:54.339Z,27.00
2019-06-15T13:21:28.117Z,27.00
2019-06-15T13:24:02.779Z,26.70
2019-06-15T13:26:36.310Z,26.70
2019-06-15T13:29:09.935Z,26.60
2019-06-15T13:31:44.235Z,26.50
2019-06-15T13:34:17.987Z,26.40
2019-06-15T13:36:51.531Z,26.50
2019-06-15T13:39:25.183Z,26.50
2019-06-15T13:41:58.907Z,26.50
2019-06-15T13:44:32.705Z,26.40
2019-06-15T13:47:06.338Z,26.30
2019-06-15T13:49:40.049Z,25.90
2019-06-15T13:52:13.601Z,25.90
2019-06-15T13:54:48.183Z,25.80
2019-06-15T13:57:21.748Z,25.80
2019-06-15T13:59:55.417Z,25.90
2019-06-15T14:02:29.154Z,25.80
2019-06-15T14:05:02.943Z,25.70
2019-06-15T14:07:36.503Z,25.70
2019-06-15T14:10:10.102Z,25.40
2019-06-15T14:12:43.707Z,25.30
2019-06-15T14:15:17.407Z,25.30
2019-06-15T14:17:51.022Z,25.30
2019-06-15T14:20:24.755Z,25.30
2019-06-15T14:22:58.500Z,25.30
2019-06-15T14:25:33.001Z,25.70
2019-06-15T14:28:07.594Z,25.80
2019-06-15T14:30:41.315Z,25.70
2019-06-15T14:33:14.919Z,25.80
2019-06-15T14:35:48.509Z,25.70
2019-06-15T14:38:22.807Z,25.70
2019-06-15T14:40:56.416Z,25.70
2019-06-15T14:43:30.027Z,25.40
2019-06-15T14:46:04.012Z,25.50
2019-06-15T14:48:38.558Z,25.80
2019-06-15T14:51:12.359Z,25.80
2019-06-15T14:53:51.673Z,25.70
2019-06-15T14:56:19.861Z,25.70
2019-06-15T14:58:56.240Z,25.60
2019-06-15T15:01:27.836Z,25.60
2019-06-15T15:04:01.813Z,25.50
2019-06-15T15:06:36.797Z,25.40
2019-06-15T15:09:09.015Z,25.40
2019-06-15T15:11:42.567Z,25.40
2019-06-15T15:14:17.369Z,25.40
2019-06-15T15:16:50.016Z,25.50
2019-06-15T15:19:23.731Z,25.50
2019-06-15T15:21:58.047Z,25.60
2019-06-15T15:24:32.480Z,25.70
2019-06-15T15:27:06.165Z,25.70
2019-06-15T15:29:39.707Z,25.60
2019-06-15T15:32:25.013Z,25.30
2019-06-15T15:34:47.861Z,25.30
2019-06-15T15:37:21.592Z,25.30
2019-06-15T15:39:56.519Z,25.40
2019-06-15T15:42:28.855Z,25.30
2019-06-15T15:45:02.597Z,25.30
2019-06-15T15:47:36.220Z,25.30
2019-06-15T15:50:10.519Z,25.30
2019-06-15T15:52:46.151Z,25.30
2019-06-15T15:55:17.861Z,25.00
2019-06-15T15:57:51.424Z,25.00
2019-06-15T16:00:30.842Z,25.10
2019-06-15T16:03:06.738Z,25.10
2019-06-15T16:05:38.383Z,25.10
2019-06-15T16:08:11.993Z,25.10
2019-06-15T16:10:46.288Z,24.90
2019-06-15T16:13:19.360Z,24.80
2019-06-15T16:15:52.982Z,24.90
2019-06-15T16:18:26.788Z,24.90
2019-06-15T16:21:00.433Z,24.90
2019-06-15T16:23:34.922Z,24.70
2019-06-15T16:26:08.627Z,24.70
2019-06-15T16:28:42.182Z,24.80
2019-06-15T16:31:18.761Z,25.00
2019-06-15T16:33:49.611Z,25.20
2019-06-15T16:36:23.444Z,25.30
2019-06-15T16:38:57.811Z,25.40
2019-06-15T16:41:31.435Z,25.40
2019-06-15T16:44:07.221Z,25.40
2019-06-15T16:46:38.926Z,25.60
2019-06-15T16:49:12.860Z,25.70
2019-06-15T16:51:47.100Z,25.70
2019-06-15T16:54:22.637Z,25.40
2019-06-15T16:57:02.062Z,25.30
2019-06-15T16:59:36.331Z,25.20
2019-06-15T17:02:09.443Z,25.00
2019-06-15T17:04:46.563Z,24.80
2019-06-15T17:07:17.943Z,24.80
2019-06-15T17:09:53.446Z,24.80
2019-06-15T17:12:29.798Z,24.70
2019-06-15T17:15:06.511Z,24.70
2019-06-15T17:17:38.107Z,24.60
2019-06-15T17:20:11.751Z,24.60
2019-06-15T17:22:47.245Z,24.70
2019-06-15T17:25:19.789Z,24.80
2019-06-15T17:27:56.173Z,24.70
2019-06-15T17:30:27.212Z,24.70
2019-06-15T17:33:04.618Z,24.60
2019-06-15T17:35:36.255Z,24.50
2019-06-15T17:38:07.977Z,24.50
2019-06-15T17:40:41.549Z,24.50
2019-06-15T17:43:16.140Z,24.40
2019-06-15T17:45:48.860Z,24.40
2019-06-15T17:48:23.187Z,24.30
2019-06-15T17:50:57.360Z,24.30
2019-06-15T17:53:33.607Z,24.30
2019-06-15T17:56:07.087Z,24.20
2019-06-15T17:58:38.497Z,24.20
2019-06-15T18:01:12.209Z,24.10
2019-06-15T18:03:53.768Z,24.10
2019-06-15T18:06:19.506Z,24.20
2019-06-15T18:08:53.219Z,24.10
2019-06-15T18:11:26.937Z,24.10
2019-06-15T18:14:00.670Z,23.90
2019-06-15T18:16:36.499Z,23.80
2019-06-15T18:19:07.891Z,23.80
2019-06-15T18:21:41.671Z,23.80
2019-06-15T18:24:16.230Z,23.70
2019-06-15T18:26:48.941Z,23.60
2019-06-15T18:29:22.526Z,23.50
2019-06-15T18:31:56.650Z,23.50
2019-06-15T18:34:30.127Z,23.50
2019-06-15T18:37:03.881Z,23.40
2019-06-15T18:39:37.597Z,23.30
2019-06-15T18:42:11.227Z,23.20
2019-06-15T18:44:47.904Z,23.00
2019-06-15T18:47:20.049Z,23.10
2019-06-15T18:49:56.189Z,23.00
2019-06-15T18:52:28.157Z,23.00
2019-06-15T18:55:01.859Z,23.00
2019-06-15T18:57:37.170Z,23.00
2019-06-15T19:00:09.161Z,23.00
2019-06-15T19:02:43.703Z,22.90
2019-06-15T19:05:17.290Z,22.90
2019-06-15T19:07:50.956Z,22.80
2019-06-15T19:10:40.350Z,22.80
2019-06-15T19:13:16.096Z,22.70
2019-06-15T19:15:48.678Z,22.80
2019-06-15T19:18:22.301Z,22.80
2019-06-15T19:20:56.314Z,22.80
2019-06-15T19:23:30.597Z,22.80
2019-06-15T19:26:06.363Z,22.80
2019-06-15T19:28:37.716Z,22.80
2019-06-15T19:31:11.311Z,22.70
2019-06-15T19:33:46.880Z,22.70
2019-06-15T19:36:20.302Z,22.60
2019-06-15T19:38:54.133Z,22.60
2019-06-15T19:41:28.735Z,22.50
2019-06-15T19:44:02.499Z,22.50
2019-06-15T19:46:36.578Z,22.40
2019-06-15T19:49:09.708Z,22.30
2019-06-15T19:51:43.391Z,22.20
2019-06-15T19:54:16.950Z,22.10
2019-06-15T19:56:50.520Z,22.10
2019-06-15T19:59:26.173Z,22.00
2019-06-15T20:01:58.528Z,22.00
2019-06-15T20:04:32.868Z,21.90
2019-06-15T20:07:06.666Z,21.90
2019-06-15T20:09:40.175Z,21.90
2019-06-15T20:12:19.077Z,21.90
2019-06-15T20:14:47.410Z,21.90
2019-06-15T20:17:21.068Z,21.80
2019-06-15T20:19:55.959Z,21.70
2019-06-15T20:22:30.003Z,21.70
2019-06-15T20:25:01.970Z,21.70
2019-06-15T20:27:37.699Z,21.60
2019-06-15T20:30:10.157Z,21.60
2019-06-15T20:32:46.112Z,21.60
2019-06-15T20:35:21.047Z,21.60
2019-06-15T20:37:51.797Z,21.60
2019-06-15T20:40:26.711Z,21.60
2019-06-15T20:43:00.623Z,21.60
2019-06-15T20:45:37.118Z,21.60
2019-06-15T20:48:08.519Z,21.60
2019-06-15T20:50:42.083Z,21.60
2019-06-15T20:53:16.987Z,21.60
2019-06-15T20:55:49.513Z,21.50
2019-06-15T20:58:26.184Z,21.40
2019-06-15T21:00:57.810Z,21.40
2019-06-15T21:03:31.555Z,21.40
2019-06-15T21:06:06.763Z,21.40
2019-06-15T21:08:38.883Z,21.40
2019-06-15T21:11:13.341Z,21.40
2019-06-15T21:13:46.979Z,21.40
2019-06-15T21:16:20.558Z,21.40
2019-06-15T21:18:54.136Z,21.40
2019-06-15T21:21:27.811Z,21.30
2019-06-15T21:24:01.513Z,21.30
2019-06-15T21:26:35.984Z,21.30
2019-06-15T21:29:09.726Z,21.30
2019-06-15T21:31:43.420Z,21.30
2019-06-15T21:34:17.060Z,21.30
2019-06-15T21:36:50.662Z,21.20
2019-06-15T21:39:26.462Z,21.20
2019-06-15T21:41:57.850Z,21.20
2019-06-15T21:44:32.268Z,21.20
2019-06-15T21:47:07.049Z,21.20
2019-06-15T21:49:40.346Z,21.20
2019-06-15T21:52:16.537Z,21.20
2019-06-15T21:54:48.536Z,21.30
2019-06-15T21:57:22.148Z,21.20
2019-06-15T21:59:56.586Z,21.10
2019-06-15T22:02:30.192Z,21.10
2019-06-15T22:05:06.970Z,20.80
2019-06-15T22:07:38.451Z,20.80
2019-06-15T22:10:12.177Z,20.60
2019-06-15T22:12:45.914Z,20.40
2019-06-15T22:15:19.599Z,20.10
2019-06-15T22:17:53.142Z,19.70
2019-06-15T22:20:26.779Z,19.30
2019-06-15T22:23:01.238Z,18.80
2019-06-15T22:25:36.068Z,18.80
2019-06-15T22:28:08.476Z,18.60
2019-06-15T22:30:42.220Z,18.40
2019-06-15T22:33:16.491Z,18.30
2019-06-15T22:35:49.593Z,18.20
2019-06-15T22:38:23.145Z,18.10
2019-06-15T22:40:57.473Z,18.00
2019-06-15T22:43:31.225Z,17.90
2019-06-15T22:46:07.190Z,17.90
2019-06-15T22:48:39.595Z,17.80
2019-06-15T22:51:13.188Z,17.80
2019-06-15T22:53:47.527Z,17.80
2019-06-15T22:56:22.134Z,17.80
2019-06-15T22:58:57.067Z,17.80
2019-06-15T23:01:29.445Z,17.90
2019-06-15T23:04:03.195Z,17.90
2019-06-15T23:06:41.048Z,17.90
2019-06-15T23:09:11.577Z,17.90
2019-06-15T23:11:46.762Z,17.80
2019-06-15T23:14:19.501Z,17.80
2019-06-15T23:16:53.213Z,17.80
2019-06-15T23:19:27.064Z,17.90
2019-06-15T23:22:00.679Z,17.90
2019-06-15T23:24:36.338Z,17.80
2019-06-15T23:27:08.991Z,17.80
2019-06-15T23:29:42.851Z,17.80
2019-06-15T23:32:20.686Z,17.70
2019-06-15T23:34:51.153Z,17.70
2019-06-15T23:37:26.706Z,17.70
2019-06-15T23:40:03.962Z,17.60
2019-06-15T23:42:38.450Z,17.60
2019-06-15T23:45:11.911Z,17.60
2019-06-15T23:47:46.676Z,17.60
2019-06-15T23:50:19.227Z,17.60
2019-06-15T23:52:52.823Z,17.60
2019-06-15T23:55:26.909Z,17.60
2019-06-15T23:58:00.135Z,17.50
